Phoenix, AZ (85039)

2:34 PM MST on February 11, 2016 (GMT -0700)
107th and Campbell Ave | | Change Station
CLOSE
Current Station
Personal Weather Station
Location: Phoenix, AZ
Elevation: 1024 ft
Nearby Weather Stations

Elev 1024 ft 33.50 °N, 112.29 °W | Updated 5 seconds ago

Clear
Clear
86.8 °F
Feels Like 83 °F
N
0.0
Wind Variable Wind from ESE
Gusts 0.0 mph

Today
High -- | Low -- °F
--% Chance of Precip.
Yesterday
High -- | Low -- °F
Precip. -- in
Pressure 30.12 in
Visibility 20.0 miles
Clouds Clear
Heat Index 83 °F
Dew Point 34 °F
Humidity 16%
Rainfall 0.00 in
Snow Depth Not available.
7:17 AM 6:09 PM
Waxing Crescent, 14% visible
METAR KGEU 112047Z VRB04KT 20SM SKC 26/00 A3012
Pressure 30.12 in
Visibility 20.0 miles
Clouds Clear
Heat Index 83 °F
Dew Point 34 °F
Humidity 16%
Rainfall 0.00 in
Snow Depth Not available.
7:17 AM 6:09 PM
Waxing Crescent, 14% visible
METAR KGEU 112047Z VRB04KT 20SM SKC 26/00 A3012

10-Day Weather Forecast

Almanac

Astronomy

Feb. 11, 2016 Rise Set
Actual Time
Civil Twilight
Nautical Twilight
Astronomical Twilight
Moon
Length of Visible Light
Length of Day
Tomorrow will be .
, % of the Moon is Illuminated

Today's Extremes

State Highs State Lows

Community

WunderPhotos

Upload Photos

1,892,164 photos uploaded!

WunderBlog® & News

Nearby

Air Quality

  Air Quality AQ Index Pollutant
Not available.

Snow Depth

Station Depth Elevation

Earthquake Activity

City Distance Mag. Time & Date
Minimum magnitude displayed is 2.5.

Coastal Water Temperatures

Place Temperature

Stations

Nearby Weather Stations

Station Location Temp. Windchill Dew Point Humidity Wind Precip. Elev Updated Type
                   

Watches & Warnings

There are currently no watches in effect.